sensor_id;sensor_type;location;lat;lon;timestamp;pressure;altitude;pressure_sealevel;temperature;humidity
20620;BME280;10469;42.720;23.252;2023-06-14T00:01:17;94633.97;;;16.45;100.00
20620;BME280;10469;42.720;23.252;2023-06-14T00:03:45;94619.97;;;16.33;100.00
20620;BME280;10469;42.720;23.252;2023-06-14T00:06:13;94616.97;;;16.34;100.00
20620;BME280;10469;42.720;23.252;2023-06-14T00:08:39;94622.31;;;16.49;100.00
20620;BME280;10469;42.720;23.252;2023-06-14T00:11:07;94628.06;;;16.38;100.00
20620;BME280;10469;42.720;23.252;2023-06-14T00:13:33;94621.00;;;16.42;100.00
20620;BME280;10469;42.720;23.252;2023-06-14T00:15:58;94624.81;;;16.41;100.00
20620;BME280;10469;42.720;23.252;2023-06-14T00:18:24;94622.09;;;16.41;100.00
20620;BME280;10469;42.720;23.252;2023-06-14T00:20:50;94632.09;;;16.40;100.00
20620;BME280;10469;42.720;23.252;2023-06-14T00:23:17;94632.69;;;16.32;100.00
20620;BME280;10469;42.720;23.252;2023-06-14T00:25:45;94631.66;;;16.18;100.00
20620;BME280;10469;42.720;23.252;2023-06-14T00:28:10;94623.84;;;16.16;100.00
20620;BME280;10469;42.720;23.252;2023-06-14T00:30:36;94598.19;;;16.03;100.00
20620;BME280;10469;42.720;23.252;2023-06-14T00:33:01;94611.97;;;16.07;100.00
20620;BME280;10469;42.720;23.252;2023-06-14T00:35:27;94608.41;;;16.17;100.00
20620;BME280;10469;42.720;23.252;2023-06-14T00:37:52;94624.88;;;16.25;100.00
20620;BME280;10469;42.720;23.252;2023-06-14T00:40:20;94607.53;;;16.26;100.00
20620;BME280;10469;42.720;23.252;2023-06-14T00:42:45;94618.59;;;16.35;100.00
20620;BME280;10469;42.720;23.252;2023-06-14T00:45:11;94604.03;;;16.26;100.00
20620;BME280;10469;42.720;23.252;2023-06-14T00:47:38;94616.22;;;16.28;100.00
20620;BME280;10469;42.720;23.252;2023-06-14T00:50:06;94602.09;;;16.31;100.00
20620;BME280;10469;42.720;23.252;2023-06-14T00:52:32;94614.75;;;16.46;100.00
20620;BME280;10469;42.720;23.252;2023-06-14T00:54:58;94600.50;;;16.30;100.00
20620;BME280;10469;42.720;23.252;2023-06-14T00:57:23;94614.22;;;16.44;100.00
20620;BME280;10469;42.720;23.252;2023-06-14T00:59:50;94617.50;;;16.36;100.00
20620;BME280;10469;42.720;23.252;2023-06-14T01:02:16;94609.84;;;16.48;100.00
20620;BME280;10469;42.720;23.252;2023-06-14T01:04:46;94608.75;;;16.54;100.00
20620;BME280;10469;42.720;23.252;2023-06-14T01:12:47;94604.41;;;16.53;100.00
20620;BME280;10469;42.720;23.252;2023-06-14T01:15:17;94603.09;;;16.51;100.00
20620;BME280;10469;42.720;23.252;2023-06-14T01:17:44;94607.44;;;16.47;100.00
20620;BME280;10469;42.720;23.252;2023-06-14T01:20:12;94604.53;;;16.38;100.00
20620;BME280;10469;42.720;23.252;2023-06-14T01:22:59;94606.91;;;16.45;100.00
20620;BME280;10469;42.720;23.252;2023-06-14T01:25:25;94608.94;;;16.24;100.00
20620;BME280;10469;42.720;23.252;2023-06-14T01:28:00;94609.72;;;16.24;100.00
20620;BME280;10469;42.720;23.252;2023-06-14T01:30:28;94604.88;;;16.21;100.00
20620;BME280;10469;42.720;23.252;2023-06-14T01:32:55;94611.94;;;16.12;100.00
20620;BME280;10469;42.720;23.252;2023-06-14T01:35:21;94602.47;;;16.15;100.00
20620;BME280;10469;42.720;23.252;2023-06-14T01:37:48;94594.13;;;16.06;100.00
20620;BME280;10469;42.720;23.252;2023-06-14T01:40:15;94590.63;;;16.00;100.00
20620;BME280;10469;42.720;23.252;2023-06-14T01:42:42;94599.88;;;15.94;100.00
20620;BME280;10469;42.720;23.252;2023-06-14T01:45:10;94611.19;;;15.96;100.00
20620;BME280;10469;42.720;23.252;2023-06-14T01:47:36;94610.69;;;15.94;100.00
20620;BME280;10469;42.720;23.252;2023-06-14T01:50:05;94600.41;;;15.91;100.00
20620;BME280;10469;42.720;23.252;2023-06-14T01:52:31;94603.91;;;15.92;100.00
20620;BME280;10469;42.720;23.252;2023-06-14T01:54:56;94618.25;;;15.92;100.00
20620;BME280;10469;42.720;23.252;2023-06-14T01:57:23;94627.16;;;16.03;100.00
20620;BME280;10469;42.720;23.252;2023-06-14T02:16:01;94647.00;;;15.42;100.00
20620;BME280;10469;42.720;23.252;2023-06-14T02:18:26;94630.53;;;15.39;100.00
20620;BME280;10469;42.720;23.252;2023-06-14T02:20:52;94646.72;;;15.44;100.00
20620;BME280;10469;42.720;23.252;2023-06-14T02:23:18;94648.34;;;15.40;100.00
20620;BME280;10469;42.720;23.252;2023-06-14T02:25:43;94649.97;;;15.41;100.00
20620;BME280;10469;42.720;23.252;2023-06-14T02:28:10;94648.06;;;15.36;100.00
20620;BME280;10469;42.720;23.252;2023-06-14T02:30:35;94649.44;;;15.39;100.00
20620;BME280;10469;42.720;23.252;2023-06-14T02:33:01;94651.56;;;15.37;100.00
20620;BME280;10469;42.720;23.252;2023-06-14T02:35:27;94644.84;;;15.34;100.00
20620;BME280;10469;42.720;23.252;2023-06-14T02:37:53;94637.00;;;15.32;100.00
20620;BME280;10469;42.720;23.252;2023-06-14T02:40:19;94635.41;;;15.26;100.00
20620;BME280;10469;42.720;23.252;2023-06-14T02:42:45;94646.44;;;15.45;100.00
20620;BME280;10469;42.720;23.252;2023-06-14T02:45:11;94634.28;;;15.53;100.00
20620;BME280;10469;42.720;23.252;2023-06-14T02:47:37;94638.84;;;15.63;100.00
20620;BME280;10469;42.720;23.252;2023-06-14T02:50:02;94628.31;;;15.56;100.00
20620;BME280;10469;42.720;23.252;2023-06-14T02:52:28;94639.66;;;15.58;100.00
20620;BME280;10469;42.720;23.252;2023-06-14T02:54:54;94634.56;;;15.46;100.00
20620;BME280;10469;42.720;23.252;2023-06-14T02:57:22;94635.09;;;15.48;100.00
20620;BME280;10469;42.720;23.252;2023-06-14T02:59:48;94637.25;;;15.51;100.00
20620;BME280;10469;42.720;23.252;2023-06-14T03:02:14;94651.59;;;15.47;100.00
20620;BME280;10469;42.720;23.252;2023-06-14T03:04:39;94653.72;;;15.50;100.00
20620;BME280;10469;42.720;23.252;2023-06-14T03:07:07;94654.53;;;15.45;100.00
20620;BME280;10469;42.720;23.252;2023-06-14T03:09:39;94647.53;;;15.44;100.00
20620;BME280;10469;42.720;23.252;2023-06-14T03:12:06;94645.06;;;15.58;100.00
20620;BME280;10469;42.720;23.252;2023-06-14T03:14:32;94651.56;;;15.72;100.00
20620;BME280;10469;42.720;23.252;2023-06-14T03:16:58;94654.53;;;15.81;100.00
20620;BME280;10469;42.720;23.252;2023-06-14T03:19:24;94674.78;;;15.84;100.00
20620;BME280;10469;42.720;23.252;2023-06-14T03:21:51;94680.19;;;15.84;100.00
20620;BME280;10469;42.720;23.252;2023-06-14T03:26:10;94664.00;;;15.48;100.00
20620;BME280;10469;42.720;23.252;2023-06-14T03:28:40;94668.06;;;15.50;100.00
20620;BME280;10469;42.720;23.252;2023-06-14T03:31:07;94669.41;;;15.63;100.00
20620;BME280;10469;42.720;23.252;2023-06-14T03:33:34;94666.69;;;15.53;100.00
20620;BME280;10469;42.720;23.252;2023-06-14T03:36:01;94662.91;;;15.49;100.00
20620;BME280;10469;42.720;23.252;2023-06-14T03:38:26;94675.91;;;15.72;100.00
20620;BME280;10469;42.720;23.252;2023-06-14T03:40:52;94661.84;;;15.65;100.00
20620;BME280;10469;42.720;23.252;2023-06-14T03:43:17;94672.91;;;15.74;100.00
20620;BME280;10469;42.720;23.252;2023-06-14T03:45:43;94676.16;;;15.76;100.00
20620;BME280;10469;42.720;23.252;2023-06-14T03:48:09;94669.66;;;15.82;100.00
20620;BME280;10469;42.720;23.252;2023-06-14T03:50:35;94667.72;;;15.93;100.00
20620;BME280;10469;42.720;23.252;2023-06-14T03:53:03;94661.22;;;15.99;100.00
20620;BME280;10469;42.720;23.252;2023-06-14T03:55:29;94672.06;;;15.94;100.00
20620;BME280;10469;42.720;23.252;2023-06-14T03:57:57;94677.19;;;15.95;100.00
20620;BME280;10469;42.720;23.252;2023-06-14T04:00:22;94675.03;;;16.02;100.00
20620;BME280;10469;42.720;23.252;2023-06-14T04:02:48;94667.16;;;16.11;100.00
20620;BME280;10469;42.720;23.252;2023-06-14T04:05:14;94674.09;;;16.27;100.00
20620;BME280;10469;42.720;23.252;2023-06-14T04:07:42;94669.47;;;16.38;100.00
20620;BME280;10469;42.720;23.252;2023-06-14T04:10:11;94679.66;;;16.56;100.00
20620;BME280;10469;42.720;23.252;2023-06-14T04:12:37;94669.81;;;16.71;100.00
20620;BME280;10469;42.720;23.252;2023-06-14T04:15:03;94672.91;;;17.03;100.00
20620;BME280;10469;42.720;23.252;2023-06-14T04:17:29;94669.81;;;17.20;100.00
20620;BME280;10469;42.720;23.252;2023-06-14T04:19:55;94673.56;;;17.24;100.00
20620;BME280;10469;42.720;23.252;2023-06-14T04:22:20;94664.88;;;17.27;100.00
20620;BME280;10469;42.720;23.252;2023-06-14T04:24:46;94649.19;;;17.24;100.00
20620;BME280;10469;42.720;23.252;2023-06-14T04:27:11;94650.44;;;17.66;100.00
20620;BME280;10469;42.720;23.252;2023-06-14T04:29:37;94661.19;;;17.76;100.00
20620;BME280;10469;42.720;23.252;2023-06-14T04:32:04;94655.97;;;17.85;100.00
20620;BME280;10469;42.720;23.252;2023-06-14T04:34:31;94650.06;;;18.26;100.00
20620;BME280;10469;42.720;23.252;2023-06-14T04:37:00;94658.59;;;17.90;100.00
20620;BME280;10469;42.720;23.252;2023-06-14T04:39:26;94658.31;;;17.92;100.00
20620;BME280;10469;42.720;23.252;2023-06-14T04:41:53;94654.09;;;17.80;100.00
20620;BME280;10469;42.720;23.252;2023-06-14T04:44:23;94638.19;;;17.98;100.00
20620;BME280;10469;42.720;23.252;2023-06-14T04:46:49;94644.72;;;17.97;100.00
20620;BME280;10469;42.720;23.252;2023-06-14T04:49:15;94647.59;;;18.05;100.00
20620;BME280;10469;42.720;23.252;2023-06-14T04:51:42;94660.03;;;18.54;100.00
20620;BME280;10469;42.720;23.252;2023-06-14T04:54:11;94662.44;;;18.56;100.00
20620;BME280;10469;42.720;23.252;2023-06-14T04:56:39;94664.09;;;18.33;100.00
20620;BME280;10469;42.720;23.252;2023-06-14T04:59:05;94662.13;;;18.39;100.00
20620;BME280;10469;42.720;23.252;2023-06-14T05:01:31;94672.16;;;18.38;100.00
20620;BME280;10469;42.720;23.252;2023-06-14T05:03:57;94668.50;;;18.05;100.00
20620;BME280;10469;42.720;23.252;2023-06-14T05:06:23;94676.03;;;18.08;100.00
20620;BME280;10469;42.720;23.252;2023-06-14T05:08:49;94672.19;;;18.14;100.00
20620;BME280;10469;42.720;23.252;2023-06-14T05:11:15;94668.16;;;18.36;100.00
20620;BME280;10469;42.720;23.252;2023-06-14T05:13:42;94671.19;;;18.29;100.00
20620;BME280;10469;42.720;23.252;2023-06-14T05:16:10;94674.78;;;18.48;100.00
20620;BME280;10469;42.720;23.252;2023-06-14T05:18:36;94680.22;;;18.24;100.00
20620;BME280;10469;42.720;23.252;2023-06-14T05:21:03;94663.91;;;18.48;100.00
20620;BME280;10469;42.720;23.252;2023-06-14T05:23:30;94686.75;;;18.23;100.00
20620;BME280;10469;42.720;23.252;2023-06-14T05:25:56;94696.09;;;18.12;100.00
20620;BME280;10469;42.720;23.252;2023-06-14T05:28:22;94694.16;;;18.18;100.00
20620;BME280;10469;42.720;23.252;2023-06-14T05:30:48;94700.47;;;18.08;100.00
20620;BME280;10469;42.720;23.252;2023-06-14T05:33:13;94701.81;;;18.11;100.00
20620;BME280;10469;42.720;23.252;2023-06-14T05:35:39;94707.28;;;18.29;100.00
20620;BME280;10469;42.720;23.252;2023-06-14T05:38:04;94697.25;;;18.06;100.00
20620;BME280;10469;42.720;23.252;2023-06-14T05:40:31;94707.69;;;17.94;100.00
20620;BME280;10469;42.720;23.252;2023-06-14T05:42:56;94709.59;;;18.17;100.00
20620;BME280;10469;42.720;23.252;2023-06-14T05:45:22;94711.22;;;18.18;100.00
20620;BME280;10469;42.720;23.252;2023-06-14T05:47:47;94716.06;;;18.21;100.00
20620;BME280;10469;42.720;23.252;2023-06-14T05:50:13;94702.66;;;18.06;100.00
20620;BME280;10469;42.720;23.252;2023-06-14T05:52:39;94712.38;;;18.12;100.00
20620;BME280;10469;42.720;23.252;2023-06-14T05:55:04;94716.88;;;17.98;100.00
20620;BME280;10469;42.720;23.252;2023-06-14T05:57:31;94719.06;;;18.20;100.00
20620;BME280;10469;42.720;23.252;2023-06-14T05:59:56;94718.78;;;17.97;100.00
20620;BME280;10469;42.720;23.252;2023-06-14T06:02:22;94715.63;;;17.85;100.00
20620;BME280;10469;42.720;23.252;2023-06-14T06:04:47;94718.03;;;17.87;100.00
20620;BME280;10469;42.720;23.252;2023-06-14T06:07:13;94720.31;;;18.03;100.00
20620;BME280;10469;42.720;23.252;2023-06-14T06:09:38;94718.94;;;18.06;100.00
20620;BME280;10469;42.720;23.252;2023-06-14T06:12:06;94725.59;;;18.19;100.00
20620;BME280;10469;42.720;23.252;2023-06-14T06:14:32;94726.63;;;17.99;100.00
20620;BME280;10469;42.720;23.252;2023-06-14T06:16:57;94735.53;;;18.28;100.00
20620;BME280;10469;42.720;23.252;2023-06-14T06:19:23;94723.16;;;18.17;100.00
20620;BME280;10469;42.720;23.252;2023-06-14T06:21:48;94714.91;;;18.03;100.00
20620;BME280;10469;42.720;23.252;2023-06-14T06:24:14;94719.03;;;18.49;100.00
20620;BME280;10469;42.720;23.252;2023-06-14T06:26:39;94723.47;;;18.40;100.00
20620;BME280;10469;42.720;23.252;2023-06-14T06:29:05;94730.84;;;18.58;100.00
20620;BME280;10469;42.720;23.252;2023-06-14T06:31:31;94727.13;;;18.97;100.00
20620;BME280;10469;42.720;23.252;2023-06-14T06:33:56;94729.19;;;19.05;100.00
20620;BME280;10469;42.720;23.252;2023-06-14T06:36:22;94722.00;;;19.14;100.00
20620;BME280;10469;42.720;23.252;2023-06-14T06:38:48;94711.13;;;19.14;100.00
20620;BME280;10469;42.720;23.252;2023-06-14T06:41:13;94723.16;;;20.25;100.00
20620;BME280;10469;42.720;23.252;2023-06-14T06:43:39;94722.25;;;19.50;100.00
20620;BME280;10469;42.720;23.252;2023-06-14T06:46:04;94714.31;;;20.47;100.00
20620;BME280;10469;42.720;23.252;2023-06-14T06:48:30;94708.56;;;21.40;100.00
20620;BME280;10469;42.720;23.252;2023-06-14T06:50:56;94695.66;;;21.32;100.00
20620;BME280;10469;42.720;23.252;2023-06-14T06:53:21;94709.00;;;21.33;100.00
20620;BME280;10469;42.720;23.252;2023-06-14T06:55:48;94703.81;;;23.70;100.00
20620;BME280;10469;42.720;23.252;2023-06-14T06:58:14;94703.47;;;24.62;100.00
20620;BME280;10469;42.720;23.252;2023-06-14T07:00:39;94700.53;;;25.47;100.00
20620;BME280;10469;42.720;23.252;2023-06-14T07:03:06;94705.28;;;23.59;100.00
20620;BME280;10469;42.720;23.252;2023-06-14T07:05:32;94709.41;;;22.16;100.00
20620;BME280;10469;42.720;23.252;2023-06-14T07:07:57;94706.63;;;22.39;100.00
20620;BME280;10469;42.720;23.252;2023-06-14T07:10:23;94711.28;;;21.40;100.00
20620;BME280;10469;42.720;23.252;2023-06-14T07:12:50;94709.38;;;21.63;100.00
20620;BME280;10469;42.720;23.252;2023-06-14T07:15:15;94699.19;;;21.18;100.00
20620;BME280;10469;42.720;23.252;2023-06-14T07:17:41;94702.47;;;21.88;100.00
20620;BME280;10469;42.720;23.252;2023-06-14T07:20:08;94686.69;;;21.17;100.00
20620;BME280;10469;42.720;23.252;2023-06-14T07:22:40;94698.47;;;21.26;100.00
20620;BME280;10469;42.720;23.252;2023-06-14T07:25:09;94693.50;;;21.65;100.00
20620;BME280;10469;42.720;23.252;2023-06-14T07:27:38;94695.84;;;21.80;100.00
20620;BME280;10469;42.720;23.252;2023-06-14T07:30:04;94697.50;;;22.12;100.00
20620;BME280;10469;42.720;23.252;2023-06-14T07:32:30;94697.63;;;21.85;100.00
20620;BME280;10469;42.720;23.252;2023-06-14T07:34:55;94692.53;;;21.92;100.00
20620;BME280;10469;42.720;23.252;2023-06-14T07:37:21;94701.75;;;22.27;100.00
20620;BME280;10469;42.720;23.252;2023-06-14T07:39:46;94693.16;;;22.91;100.00
20620;BME280;10469;42.720;23.252;2023-06-14T07:42:12;94697.72;;;22.02;100.00
20620;BME280;10469;42.720;23.252;2023-06-14T07:44:37;94691.97;;;21.72;100.00
20620;BME280;10469;42.720;23.252;2023-06-14T07:47:03;94703.84;;;21.54;100.00
20620;BME280;10469;42.720;23.252;2023-06-14T07:49:28;94708.31;;;21.95;100.00
20620;BME280;10469;42.720;23.252;2023-06-14T07:51:54;94705.69;;;22.43;100.00
20620;BME280;10469;42.720;23.252;2023-06-14T07:54:20;94701.63;;;22.41;100.00
20620;BME280;10469;42.720;23.252;2023-06-14T07:56:50;94713.84;;;21.81;100.00
20620;BME280;10469;42.720;23.252;2023-06-14T07:59:16;94707.56;;;21.58;100.00
20620;BME280;10469;42.720;23.252;2023-06-14T08:01:41;94711.47;;;21.66;100.00
20620;BME280;10469;42.720;23.252;2023-06-14T08:04:13;94727.56;;;24.39;100.00
20620;BME280;10469;42.720;23.252;2023-06-14T08:06:38;94716.88;;;24.55;100.00
20620;BME280;10469;42.720;23.252;2023-06-14T08:09:04;94717.03;;;24.88;100.00
20620;BME280;10469;42.720;23.252;2023-06-14T08:11:31;94714.34;;;26.71;100.00
20620;BME280;10469;42.720;23.252;2023-06-14T08:13:56;94712.00;;;27.59;100.00
20620;BME280;10469;42.720;23.252;2023-06-14T08:16:22;94724.91;;;25.91;100.00
20620;BME280;10469;42.720;23.252;2023-06-14T08:18:48;94723.19;;;27.26;100.00
20620;BME280;10469;42.720;23.252;2023-06-14T08:21:13;94721.31;;;29.85;100.00
20620;BME280;10469;42.720;23.252;2023-06-14T08:23:40;94719.19;;;27.23;100.00
20620;BME280;10469;42.720;23.252;2023-06-14T08:26:09;94723.75;;;27.72;100.00
20620;BME280;10469;42.720;23.252;2023-06-14T08:28:34;94723.06;;;26.73;100.00
20620;BME280;10469;42.720;23.252;2023-06-14T08:31:00;94724.09;;;26.81;100.00
20620;BME280;10469;42.720;23.252;2023-06-14T08:33:25;94719.25;;;26.54;100.00
20620;BME280;10469;42.720;23.252;2023-06-14T08:35:51;94724.22;;;26.85;100.00
20620;BME280;10469;42.720;23.252;2023-06-14T08:38:17;94717.00;;;27.05;100.00
20620;BME280;10469;42.720;23.252;2023-06-14T08:40:42;94699.34;;;27.18;100.00
20620;BME280;10469;42.720;23.252;2023-06-14T08:43:08;94707.38;;;26.28;100.00
20620;BME280;10469;42.720;23.252;2023-06-14T08:45:34;94720.13;;;23.75;100.00
20620;BME280;10469;42.720;23.252;2023-06-14T08:48:00;94719.78;;;23.68;100.00
20620;BME280;10469;42.720;23.252;2023-06-14T08:50:27;94716.69;;;23.61;100.00
20620;BME280;10469;42.720;23.252;2023-06-14T08:52:57;94716.69;;;23.61;100.00
20620;BME280;10469;42.720;23.252;2023-06-14T08:55:26;94712.84;;;23.45;100.00
20620;BME280;10469;42.720;23.252;2023-06-14T08:57:57;94692.53;;;22.94;100.00
20620;BME280;10469;42.720;23.252;2023-06-14T09:00:23;94716.91;;;22.82;100.00
20620;BME280;10469;42.720;23.252;2023-06-14T09:02:51;94717.19;;;23.37;100.00
20620;BME280;10469;42.720;23.252;2023-06-14T09:05:22;94718.63;;;23.26;100.00
20620;BME280;10469;42.720;23.252;2023-06-14T09:07:48;94706.53;;;23.27;100.00
20620;BME280;10469;42.720;23.252;2023-06-14T09:10:20;94701.75;;;23.67;100.00
20620;BME280;10469;42.720;23.252;2023-06-14T09:12:51;94710.25;;;23.40;100.00
20620;BME280;10469;42.720;23.252;2023-06-14T09:15:19;94648.75;;;23.63;100.00
20620;BME280;10469;42.720;23.252;2023-06-14T09:17:51;94666.31;;;24.44;100.00
20620;BME280;10469;42.720;23.252;2023-06-14T09:20:49;94660.06;;;24.94;100.00
20620;BME280;10469;42.720;23.252;2023-06-14T09:23:39;94674.06;;;26.42;100.00
20620;BME280;10469;42.720;23.252;2023-06-14T09:26:09;94690.34;;;27.45;100.00
20620;BME280;10469;42.720;23.252;2023-06-14T09:28:36;94685.34;;;27.75;100.00
20620;BME280;10469;42.720;23.252;2023-06-14T09:31:02;94692.63;;;26.33;100.00
20620;BME280;10469;42.720;23.252;2023-06-14T09:33:28;94685.81;;;27.65;100.00
20620;BME280;10469;42.720;23.252;2023-06-14T09:35:56;94673.53;;;26.98;100.00
20620;BME280;10469;42.720;23.252;2023-06-14T09:38:22;94687.97;;;24.96;100.00
20620;BME280;10469;42.720;23.252;2023-06-14T09:40:49;94675.88;;;25.39;100.00
20620;BME280;10469;42.720;23.252;2023-06-14T09:43:15;94667.75;;;26.17;100.00
20620;BME280;10469;42.720;23.252;2023-06-14T09:45:41;94681.47;;;24.41;100.00
20620;BME280;10469;42.720;23.252;2023-06-14T09:48:11;94678.84;;;23.98;100.00
20620;BME280;10469;42.720;23.252;2023-06-14T09:50:36;94677.69;;;25.76;100.00
20620;BME280;10469;42.720;23.252;2023-06-14T09:53:06;94676.75;;;26.75;100.00
20620;BME280;10469;42.720;23.252;2023-06-14T09:55:34;94677.47;;;27.09;100.00
20620;BME280;10469;42.720;23.252;2023-06-14T09:58:04;94668.81;;;27.23;100.00
20620;BME280;10469;42.720;23.252;2023-06-14T10:00:30;94644.91;;;29.38;100.00
20620;BME280;10469;42.720;23.252;2023-06-14T10:03:03;94651.88;;;29.51;99.65
20620;BME280;10469;42.720;23.252;2023-06-14T10:05:32;94665.44;;;31.33;93.46
20620;BME280;10469;42.720;23.252;2023-06-14T10:08:04;94662.06;;;31.77;80.33
20620;BME280;10469;42.720;23.252;2023-06-14T10:10:31;94651.81;;;32.48;81.13
20620;BME280;10469;42.720;23.252;2023-06-14T10:12:56;94642.88;;;29.73;97.20
20620;BME280;10469;42.720;23.252;2023-06-14T10:15:28;94651.16;;;31.04;89.71
20620;BME280;10469;42.720;23.252;2023-06-14T10:18:11;94642.19;;;28.39;100.00
20620;BME280;10469;42.720;23.252;2023-06-14T10:23:41;94642.69;;;27.05;100.00
20620;BME280;10469;42.720;23.252;2023-06-14T10:26:08;94640.09;;;28.20;100.00
20620;BME280;10469;42.720;23.252;2023-06-14T10:28:37;94644.03;;;28.35;100.00
20620;BME280;10469;42.720;23.252;2023-06-14T10:31:06;94639.03;;;28.25;100.00
20620;BME280;10469;42.720;23.252;2023-06-14T10:33:33;94632.97;;;26.58;100.00
20620;BME280;10469;42.720;23.252;2023-06-14T10:38:43;94634.78;;;27.03;100.00
20620;BME280;10469;42.720;23.252;2023-06-14T10:41:09;94621.09;;;27.31;100.00
20620;BME280;10469;42.720;23.252;2023-06-14T10:43:35;94623.91;;;28.03;100.00
20620;BME280;10469;42.720;23.252;2023-06-14T10:46:19;94619.28;;;27.23;100.00
20620;BME280;10469;42.720;23.252;2023-06-14T10:48:48;94605.03;;;26.44;100.00
20620;BME280;10469;42.720;23.252;2023-06-14T10:51:20;94617.31;;;25.89;100.00
20620;BME280;10469;42.720;23.252;2023-06-14T10:53:47;94617.00;;;25.69;100.00
20620;BME280;10469;42.720;23.252;2023-06-14T10:56:32;94610.25;;;24.62;100.00
20620;BME280;10469;42.720;23.252;2023-06-14T10:58:58;94616.13;;;25.23;100.00
20620;BME280;10469;42.720;23.252;2023-06-14T11:01:38;94585.31;;;26.17;100.00
20620;BME280;10469;42.720;23.252;2023-06-14T11:04:10;94594.81;;;27.90;100.00
20620;BME280;10469;42.720;23.252;2023-06-14T11:09:36;94588.44;;;30.89;93.45
20620;BME280;10469;42.720;23.252;2023-06-14T11:12:09;94587.00;;;30.49;92.01
20620;BME280;10469;42.720;23.252;2023-06-14T11:14:38;94576.31;;;27.90;100.00
20620;BME280;10469;42.720;23.252;2023-06-14T11:17:04;94580.25;;;28.88;99.21
20620;BME280;10469;42.720;23.252;2023-06-14T11:19:29;94580.66;;;27.63;100.00
20620;BME280;10469;42.720;23.252;2023-06-14T11:21:55;94586.53;;;26.81;100.00
20620;BME280;10469;42.720;23.252;2023-06-14T11:24:21;94582.53;;;26.05;100.00
20620;BME280;10469;42.720;23.252;2023-06-14T11:26:47;94587.09;;;26.99;100.00
20620;BME280;10469;42.720;23.252;2023-06-14T11:29:15;94564.34;;;27.70;100.00
20620;BME280;10469;42.720;23.252;2023-06-14T11:31:44;94575.16;;;28.23;100.00
20620;BME280;10469;42.720;23.252;2023-06-14T11:34:13;94578.69;;;27.76;100.00
20620;BME280;10469;42.720;23.252;2023-06-14T11:36:39;94578.38;;;28.09;100.00
20620;BME280;10469;42.720;23.252;2023-06-14T11:39:06;94580.56;;;27.04;100.00
20620;BME280;10469;42.720;23.252;2023-06-14T11:41:41;94575.97;;;28.08;100.00
20620;BME280;10469;42.720;23.252;2023-06-14T11:44:08;94563.97;;;28.32;100.00
20620;BME280;10469;42.720;23.252;2023-06-14T11:46:33;94563.16;;;26.87;100.00
20620;BME280;10469;42.720;23.252;2023-06-14T11:48:59;94547.75;;;26.46;100.00
20620;BME280;10469;42.720;23.252;2023-06-14T11:51:37;94553.56;;;25.83;100.00
20620;BME280;10469;42.720;23.252;2023-06-14T11:54:03;94540.06;;;25.45;100.00
20620;BME280;10469;42.720;23.252;2023-06-14T11:56:31;94549.44;;;26.01;100.00
20620;BME280;10469;42.720;23.252;2023-06-14T11:58:57;94546.81;;;25.93;100.00
20620;BME280;10469;42.720;23.252;2023-06-14T12:01:23;94547.44;;;25.65;100.00
20620;BME280;10469;42.720;23.252;2023-06-14T12:03:52;94534.69;;;26.31;100.00
20620;BME280;10469;42.720;23.252;2023-06-14T12:06:26;94515.59;;;25.64;100.00
20620;BME280;10469;42.720;23.252;2023-06-14T12:08:58;94531.00;;;25.90;100.00
20620;BME280;10469;42.720;23.252;2023-06-14T12:11:24;94521.03;;;25.85;100.00
20620;BME280;10469;42.720;23.252;2023-06-14T12:13:50;94532.31;;;25.59;100.00
20620;BME280;10469;42.720;23.252;2023-06-14T12:16:15;94525.75;;;25.85;100.00
20620;BME280;10469;42.720;23.252;2023-06-14T12:18:41;94510.75;;;26.07;100.00
20620;BME280;10469;42.720;23.252;2023-06-14T12:21:09;94523.53;;;25.33;100.00
20620;BME280;10469;42.720;23.252;2023-06-14T12:23:45;94524.38;;;25.12;100.00
20620;BME280;10469;42.720;23.252;2023-06-14T12:28:41;94515.34;;;25.45;100.00
20620;BME280;10469;42.720;23.252;2023-06-14T12:31:08;94505.50;;;26.14;100.00
20620;BME280;10469;42.720;23.252;2023-06-14T12:33:33;94513.75;;;26.26;100.00
20620;BME280;10469;42.720;23.252;2023-06-14T12:35:59;94516.00;;;26.73;100.00
20620;BME280;10469;42.720;23.252;2023-06-14T12:38:24;94495.78;;;27.21;100.00
20620;BME280;10469;42.720;23.252;2023-06-14T12:40:50;94507.13;;;26.80;100.00
20620;BME280;10469;42.720;23.252;2023-06-14T12:43:16;94498.38;;;26.49;100.00
20620;BME280;10469;42.720;23.252;2023-06-14T12:45:41;94493.34;;;26.51;100.00
20620;BME280;10469;42.720;23.252;2023-06-14T12:48:07;94492.03;;;27.01;100.00
20620;BME280;10469;42.720;23.252;2023-06-14T12:50:34;94469.88;;;26.17;100.00
20620;BME280;10469;42.720;23.252;2023-06-14T12:52:59;94500.34;;;25.88;100.00
20620;BME280;10469;42.720;23.252;2023-06-14T12:55:25;94493.00;;;25.80;100.00
20620;BME280;10469;42.720;23.252;2023-06-14T12:57:50;94485.91;;;25.79;100.00
20620;BME280;10469;42.720;23.252;2023-06-14T13:00:17;94477.41;;;26.57;100.00
20620;BME280;10469;42.720;23.252;2023-06-14T13:02:43;94481.50;;;26.63;100.00
20620;BME280;10469;42.720;23.252;2023-06-14T13:05:09;94484.09;;;25.83;100.00
20620;BME280;10469;42.720;23.252;2023-06-14T13:07:34;94478.38;;;26.00;100.00
20620;BME280;10469;42.720;23.252;2023-06-14T13:10:00;94493.88;;;25.59;100.00
20620;BME280;10469;42.720;23.252;2023-06-14T13:12:26;94486.81;;;25.04;100.00
20620;BME280;10469;42.720;23.252;2023-06-14T13:14:51;94488.66;;;25.00;100.00